Time;durP1;ratioP1;P1;durP2;ratioP2;P2;SDS_P1;SDS_P2;PMS_P1;PMS_P2;Temp;Humidity;BMP_temperature;BMP_pressure;BME280_temperature;BME280_humidity;BME280_pressure;Samples;Min_cycle;Max_cycle;Signal;HPM_P1;HPM_P2
2021/11/22 00:02:04;;;;;;;;;;;;;;;;;;5065782;28;19912;-50
2021/11/22 00:04:31;;;;;;;;;;;;;;;;;;5061293;28;19913;-50
2021/11/22 00:06:57;;;;;;;;;;;;;;;;;;5061265;28;20003;-51
2021/11/22 00:09:23;;;;;;;;;;;;;;;;;;5065888;28;20061;-48
2021/11/22 00:11:49;;;;;;;;;;;;;;;;;;5064622;28;20338;-49
2021/11/22 00:14:15;;;;;;;;;;;;;;;;;;5066614;28;19940;-49
2021/11/22 00:16:41;;;;;;;;;;;;;;;;;;5065609;28;19956;-49
2021/11/22 00:19:07;;;;;;;;;;;;;;;;;;5065813;28;19989;-51
2021/11/22 00:21:33;;;;;;;;;;;;;;;;;;5065867;28;19920;-49
2021/11/22 00:23:59;;;;;;;;;;;;;;;;;;5064824;28;19917;-49
2021/11/22 00:26:25;;;;;;;;;;;;;;;;;;5064627;28;19908;-49
2021/11/22 00:28:51;;;;;;;;;;;;;;;;;;5063113;28;19962;-48
2021/11/22 00:31:17;;;;;;;;;;;;;;;;;;5068290;28;19917;-49
2021/11/22 00:33:44;;;;;;;;;;;;;;;;;;5068002;28;19913;-49
2021/11/22 00:36:11;;;;;;;;;;;;;;;;;;5069507;28;20390;-49
2021/11/22 00:38:36;;;;;;;;;;;;;;;;;;5068444;28;20327;-48
2021/11/22 00:41:03;;;;;;;;;;;;;;;;;;5069559;28;19916;-49
2021/11/22 00:43:29;;;;;;;;;;;;;;;;;;5069252;28;19966;-48
2021/11/22 00:45:54;;;;;;;;;;;;;;;;;;5069555;28;19917;-50
2021/11/22 00:48:21;;;;;;;;;;;;;;;;;;5067609;28;19951;-50
2021/11/22 00:50:47;;;;;;;;;;;;;;;;;;5049303;28;19919;-48
2021/11/22 00:53:13;;;;;;;;;;;;;;;;;;5050200;28;19913;-51
2021/11/22 00:55:39;;;;;;;;;;;;;;;;;;5049416;28;19995;-51
2021/11/22 00:58:05;;;;;;;;;;;;;;;;;;5049115;28;19932;-48
2021/11/22 01:00:31;;;;;;;;;;;;;;;;;;5063275;28;19912;-48
2021/11/22 01:02:57;;;;;;;;;;;;;;;;;;5069464;28;20008;-50
2021/11/22 01:05:23;;;;;;;;;;;;;;;;;;5068429;28;20011;-50
2021/11/22 01:07:49;;;;;;;;;;;;;;;;;;5068999;28;19909;-48
2021/11/22 01:10:15;;;;;;;;;;;;;;;;;;5068422;28;19952;-48
2021/11/22 01:12:41;;;;;;;;;;;;;;;;;;5068412;28;19922;-48
2021/11/22 01:15:07;;;;;;;;;;;;;;;;;;5048078;28;19912;-50
2021/11/22 01:17:33;;;;;;;;;;;;;;;;;;5054327;28;20007;-49
2021/11/22 01:19:59;;;;;;;;;;;;;;;;;;5055994;28;19995;-49
2021/11/22 01:22:25;;;;;;;;;;;;;;;;;;5048466;28;20001;-48
2021/11/22 01:24:51;;;;;;;;;;;;;;;;;;5048972;28;19912;-49
2021/11/22 01:27:17;;;;;;;;;;;;;;;;;;5048688;28;19909;-52
2021/11/22 01:29:42;;;;;;;;;;;;;;;;;;5048941;28;19956;-47
2021/11/22 01:32:08;;;;;;;;;;;;;;;;;;5048639;28;20008;-49
2021/11/22 01:34:34;;;;;;;;;;;;;;;;;;5047655;28;19913;-49
2021/11/22 01:37:00;;;;;;;;;;;;;;;;;;5048908;28;20376;-48
2021/11/22 01:39:26;;;;;;;;;;;;;;;;;;5054845;28;19913;-47
2021/11/22 01:41:52;;;;;;;;;;;;;;;;;;5067682;28;19913;-48
2021/11/22 01:44:18;;;;;;;;;;;;;;;;;;5068316;28;19916;-51
2021/11/22 01:46:44;;;;;;;;;;;;;;;;;;5068335;28;19913;-49
2021/11/22 01:49:10;;;;;;;;;;;;;;;;;;5061219;28;19912;-48
2021/11/22 01:51:36;;;;;;;;;;;;;;;;;;5048183;28;20080;-48
2021/11/22 01:54:02;;;;;;;;;;;;;;;;;;5048440;28;19913;-48
2021/11/22 01:56:28;;;;;;;;;;;;;;;;;;5048084;28;19917;-49
2021/11/22 01:58:54;;;;;;;;;;;;;;;;;;5062440;28;20033;-50
2021/11/22 02:01:20;;;;;;;;;;;;;;;;;;5067940;28;19969;-51
2021/11/22 02:03:46;;;;;;;;;;;;;;;;;;5068263;28;19912;-51
2021/11/22 02:06:12;;;;;;;;;;;;;;;;;;5068792;28;19947;-51
2021/11/22 02:08:38;;;;;;;;;;;;;;;;;;5067852;28;20391;-48
2021/11/22 02:11:04;;;;;;;;;;;;;;;;;;5063069;28;19935;-49
2021/11/22 02:13:30;;;;;;;;;;;;;;;;;;5047784;28;20430;-48
2021/11/22 02:15:56;;;;;;;;;;;;;;;;;;5048029;28;19912;-48
2021/11/22 02:18:22;;;;;;;;;;;;;;;;;;5047065;28;19916;-48
2021/11/22 02:20:48;;;;;;;;;;;;;;;;;;5062635;28;19926;-50
2021/11/22 02:23:14;;;;;;;;;;;;;;;;;;5068182;28;20387;-49
2021/11/22 02:25:40;;;;;;;;;;;;;;;;;;5067208;28;19970;-48
2021/11/22 02:28:06;;;;;;;;;;;;;;;;;;5067734;28;20158;-50
2021/11/22 02:30:32;;;;;;;;;;;;;;;;;;5066166;28;19916;-50
2021/11/22 02:32:58;;;;;;;;;;;;;;;;;;5067303;28;19931;-48
2021/11/22 02:35:24;;;;;;;;;;;;;;;;;;5067197;28;20689;-51
2021/11/22 02:37:50;;;;;;;;;;;;;;;;;;5067592;28;19909;-52
2021/11/22 02:40:16;;;;;;;;;;;;;;;;;;5066419;28;19971;-51
2021/11/22 02:42:42;;;;;;;;;;;;;;;;;;5067794;28;20410;-48
2021/11/22 02:45:08;;;;;;;;;;;;;;;;;;5065977;28;20642;-50
2021/11/22 02:47:34;;;;;;;;;;;;;;;;;;5049723;28;19923;-49
2021/11/22 02:50:00;;;;;;;;;;;;;;;;;;5051670;28;19958;-52
2021/11/22 02:52:26;;;;;;;;;;;;;;;;;;5066574;28;20015;-51
2021/11/22 02:54:52;;;;;;;;;;;;;;;;;;5063994;28;19908;-51
2021/11/22 02:57:18;;;;;;;;;;;;;;;;;;5050022;28;19909;-49
2021/11/22 02:59:44;;;;;;;;;;;;;;;;;;5047592;28;19956;-52
2021/11/22 03:02:10;;;;;;;;;;;;;;;;;;5046642;28;19909;-49
2021/11/22 03:04:36;;;;;;;;;;;;;;;;;;5046591;28;19974;-48
2021/11/22 03:07:02;;;;;;;;;;;;;;;;;;5060037;28;19939;-48
2021/11/22 03:09:27;;;;;;;;;;;;;;;;;;5066653;28;19912;-52
2021/11/22 03:11:53;;;;;;;;;;;;;;;;;;5066956;28;19926;-49
2021/11/22 03:14:19;;;;;;;;;;;;;;;;;;5066824;28;19912;-49
2021/11/22 03:16:45;;;;;;;;;;;;;;;;;;5066001;28;19916;-48
2021/11/22 03:19:11;;;;;;;;;;;;;;;;;;5065038;28;19909;-49
2021/11/22 03:21:37;;;;;;;;;;;;;;;;;;5046548;28;19909;-49
2021/11/22 03:24:03;;;;;;;;;;;;;;;;;;5046894;28;19959;-51
2021/11/22 03:26:29;;;;;;;;;;;;;;;;;;5051358;28;19917;-52
2021/11/22 03:28:55;;;;;;;;;;;;;;;;;;5066679;28;19991;-49
2021/11/22 03:31:21;;;;;;;;;;;;;;;;;;5064286;28;19912;-51
2021/11/22 03:33:47;;;;;;;;;;;;;;;;;;5066600;28;20022;-51
2021/11/22 03:36:13;;;;;;;;;;;;;;;;;;5066404;28;20000;-51
2021/11/22 03:38:40;;;;;;;;;;;;;;;;;;5066829;28;20015;-50
2021/11/22 03:41:12;;;;;;;;;;;;;;;;;;5065350;28;19913;-51
2021/11/22 03:46:11;;;;;;;;;;;;;;;;;;5060446;28;19912;-52
2021/11/22 03:48:37;;;;;;;;;;;;;;;;;;5066393;28;19913;-52
2021/11/22 03:51:03;;;;;;;;;;;;;;;;;;5065595;28;20491;-51
2021/11/22 03:53:29;;;;;;;;;;;;;;;;;;5061743;28;19917;-51
2021/11/22 03:55:55;;;;;;;;;;;;;;;;;;5066630;28;19908;-51
2021/11/22 03:58:21;;;;;;;;;;;;;;;;;;5066251;28;20310;-52
2021/11/22 04:00:47;;;;;;;;;;;;;;;;;;5066392;28;19961;-51
2021/11/22 04:03:13;;;;;;;;;;;;;;;;;;5060610;28;19920;-49
2021/11/22 04:05:39;;;;;;;;;;;;;;;;;;5048668;28;19917;-50
2021/11/22 04:08:05;;;;;;;;;;;;;;;;;;5050416;28;19935;-53
2021/11/22 04:10:31;;;;;;;;;;;;;;;;;;5050100;28;20010;-51
2021/11/22 04:12:56;;;;;;;;;;;;;;;;;;5051421;28;19912;-51
2021/11/22 04:15:22;;;;;;;;;;;;;;;;;;5068905;28;19967;-51
2021/11/22 04:17:48;;;;;;;;;;;;;;;;;;5070149;28;19912;-51
2021/11/22 04:20:14;;;;;;;;;;;;;;;;;;5070542;28;19912;-52
2021/11/22 04:22:40;;;;;;;;;;;;;;;;;;5068700;28;19982;-51
2021/11/22 04:25:06;;;;;;;;;;;;;;;;;;5068841;28;19921;-51
2021/11/22 04:27:32;;;;;;;;;;;;;;;;;;5069651;28;19991;-49
2021/11/22 04:29:58;;;;;;;;;;;;;;;;;;5069764;28;19912;-50
2021/11/22 04:32:24;;;;;;;;;;;;;;;;;;5069474;28;19915;-50
2021/11/22 04:34:50;;;;;;;;;;;;;;;;;;5068717;28;20279;-52
2021/11/22 04:37:16;;;;;;;;;;;;;;;;;;5069614;28;19922;-51
2021/11/22 04:39:42;;;;;;;;;;;;;;;;;;5070556;28;19962;-52
2021/11/22 04:42:08;;;;;;;;;;;;;;;;;;5068477;28;19916;-49
2021/11/22 04:44:34;;;;;;;;;;;;;;;;;;5068553;28;20378;-52
2021/11/22 04:47:01;;;;;;;;;;;;;;;;;;5069288;28;19912;-51
2021/11/22 04:49:27;;;;;;;;;;;;;;;;;;5069293;28;19912;-49
2021/11/22 04:51:53;;;;;;;;;;;;;;;;;;5069548;28;20455;-53
2021/11/22 04:54:19;;;;;;;;;;;;;;;;;;5068120;28;19918;-49
2021/11/22 04:56:45;;;;;;;;;;;;;;;;;;5070231;28;19969;-52
2021/11/22 04:59:12;;;;;;;;;;;;;;;;;;5069801;28;19908;-51
2021/11/22 05:01:38;;;;;;;;;;;;;;;;;;5068207;28;19957;-51
2021/11/22 05:04:04;;;;;;;;;;;;;;;;;;5068214;28;20007;-52
2021/11/22 05:06:30;;;;;;;;;;;;;;;;;;5069033;28;19912;-51
2021/11/22 05:08:56;;;;;;;;;;;;;;;;;;5069445;28;19955;-48
2021/11/22 05:11:22;;;;;;;;;;;;;;;;;;5068741;28;19918;-49
2021/11/22 05:13:48;;;;;;;;;;;;;;;;;;5067895;28;19916;-48
2021/11/22 05:16:16;;;;;;;;;;;;;;;;;;5053580;28;20156;-51
2021/11/22 05:18:41;;;;;;;;;;;;;;;;;;5055393;28;19924;-47
2021/11/22 05:21:07;;;;;;;;;;;;;;;;;;5064220;28;19920;-50
2021/11/22 05:23:33;;;;;;;;;;;;;;;;;;5048793;28;19909;-49
2021/11/22 05:25:59;;;;;;;;;;;;;;;;;;5048994;28;19916;-52
2021/11/22 05:28:27;;;;;;;;;;;;;;;;;;5049313;28;19928;-51
2021/11/22 05:30:53;;;;;;;;;;;;;;;;;;5068830;28;19916;-52
2021/11/22 05:33:18;;;;;;;;;;;;;;;;;;5059810;28;19916;-50
2021/11/22 05:35:44;;;;;;;;;;;;;;;;;;5049420;28;19974;-51
2021/11/22 05:38:10;;;;;;;;;;;;;;;;;;5048590;28;19916;-52
2021/11/22 05:40:36;;;;;;;;;;;;;;;;;;5048653;28;19913;-50
2021/11/22 05:43:03;;;;;;;;;;;;;;;;;;5061768;28;19912;-48
2021/11/22 05:45:29;;;;;;;;;;;;;;;;;;5067944;28;19921;-52
2021/11/22 05:47:55;;;;;;;;;;;;;;;;;;5068000;28;20452;-50
2021/11/22 05:50:22;;;;;;;;;;;;;;;;;;5068345;28;19913;-51
2021/11/22 05:52:53;;;;;;;;;;;;;;;;;;5065461;28;19920;-51
2021/11/22 05:55:29;;;;;;;;;;;;;;;;;;5048068;28;19912;-52
2021/11/22 05:57:55;;;;;;;;;;;;;;;;;;5048457;28;19917;-52
2021/11/22 06:00:21;;;;;;;;;;;;;;;;;;5047749;28;19926;-51
2021/11/22 06:02:49;;;;;;;;;;;;;;;;;;5049712;28;19913;-52
2021/11/22 06:05:14;;;;;;;;;;;;;;;;;;5068706;28;19912;-48
2021/11/22 06:07:40;;;;;;;;;;;;;;;;;;5068013;28;19935;-47
2021/11/22 06:10:06;;;;;;;;;;;;;;;;;;5067743;28;19912;-52
2021/11/22 06:12:32;;;;;;;;;;;;;;;;;;5066041;28;19931;-50
2021/11/22 06:14:58;;;;;;;;;;;;;;;;;;5067502;28;19913;-52
2021/11/22 06:17:24;;;;;;;;;;;;;;;;;;5067590;28;19919;-49
2021/11/22 06:19:52;;;;;;;;;;;;;;;;;;5068112;28;19915;-52
2021/11/22 06:22:18;;;;;;;;;;;;;;;;;;5064021;28;19920;-50
2021/11/22 06:24:44;;;;;;;;;;;;;;;;;;5068192;28;20264;-52
2021/11/22 06:27:10;;;;;;;;;;;;;;;;;;5067116;28;19913;-52
2021/11/22 06:29:38;;;;;;;;;;;;;;;;;;5067516;28;19960;-49
2021/11/22 06:32:10;;;;;;;;;;;;;;;;;;5066183;28;20416;-51
2021/11/22 06:34:36;;;;;;;;;;;;;;;;;;5053127;28;19979;-52
2021/11/22 06:37:02;;;;;;;;;;;;;;;;;;5047635;28;19944;-50
2021/11/22 06:39:28;;;;;;;;;;;;;;;;;;5046931;28;19920;-48
2021/11/22 06:41:54;;;;;;;;;;;;;;;;;;5065212;28;20050;-49
2021/11/22 06:44:21;;;;;;;;;;;;;;;;;;5075301;28;19923;-48
2021/11/22 06:46:48;;;;;;;;;;;;;;;;;;5065913;28;19908;-52
2021/11/22 06:49:14;;;;;;;;;;;;;;;;;;5048156;28;19909;-50
2021/11/22 06:51:40;;;;;;;;;;;;;;;;;;5061828;28;19919;-50
2021/11/22 06:54:06;;;;;;;;;;;;;;;;;;5067222;28;19919;-51
2021/11/22 06:56:32;;;;;;;;;;;;;;;;;;5066911;28;19959;-48
2021/11/22 06:58:58;;;;;;;;;;;;;;;;;;5065946;28;19924;-52
2021/11/22 07:01:24;;;;;;;;;;;;;;;;;;5067345;28;19956;-48
2021/11/22 07:03:49;;;;;;;;;;;;;;;;;;5067145;28;19954;-49
2021/11/22 07:06:15;;;;;;;;;;;;;;;;;;5067119;28;19912;-51
2021/11/22 07:08:41;;;;;;;;;;;;;;;;;;5061340;28;19916;-50
2021/11/22 07:11:07;;;;;;;;;;;;;;;;;;5065799;28;19916;-48
2021/11/22 07:13:34;;;;;;;;;;;;;;;;;;5066504;28;19988;-49
2021/11/22 07:16:00;;;;;;;;;;;;;;;;;;5052561;28;19936;-49
2021/11/22 07:18:26;;;;;;;;;;;;;;;;;;5060871;28;20038;-51
2021/11/22 07:20:51;;;;;;;;;;;;;;;;;;5066527;28;20382;-48
2021/11/22 07:23:22;;;;;;;;;;;;;;;;;;5066696;28;19909;-48
2021/11/22 07:25:48;;;;;;;;;;;;;;;;;;5064386;28;19935;-47
2021/11/22 07:28:14;;;;;;;;;;;;;;;;;;5059773;28;19912;-48
2021/11/22 07:30:40;;;;;;;;;;;;;;;;;;5062630;28;19913;-50
2021/11/22 07:33:06;;;;;;;;;;;;;;;;;;5045669;28;19913;-48
2021/11/22 07:35:33;;;;;;;;;;;;;;;;;;5049742;28;20009;-47
2021/11/22 07:37:59;;;;;;;;;;;;;;;;;;5048373;28;19917;-48
2021/11/22 07:40:25;;;;;;;;;;;;;;;;;;5052345;28;19955;-50
2021/11/22 07:42:51;;;;;;;;;;;;;;;;;;5052261;28;19967;-48
2021/11/22 07:45:17;;;;;;;;;;;;;;;;;;5054177;28;20287;-49
2021/11/22 07:47:43;;;;;;;;;;;;;;;;;;5061963;28;19991;-48
2021/11/22 07:50:09;;;;;;;;;;;;;;;;;;5051312;28;19917;-49
2021/11/22 07:52:35;;;;;;;;;;;;;;;;;;5051928;28;19912;-52
2021/11/22 07:55:01;;;;;;;;;;;;;;;;;;5047058;28;19920;-48
2021/11/22 07:57:28;;;;;;;;;;;;;;;;;;5063600;28;19916;-48
2021/11/22 07:59:54;;;;;;;;;;;;;;;;;;5066139;28;19962;-51
2021/11/22 08:02:20;;;;;;;;;;;;;;;;;;5058395;28;19913;-48
2021/11/22 08:04:46;;;;;;;;;;;;;;;;;;5058070;28;19943;-48
2021/11/22 08:07:16;;;;;;;;;;;;;;;;;;5065468;28;19944;-52
2021/11/22 08:09:47;;;;;;;;;;;;;;;;;;5066833;28;20339;-47
2021/11/22 08:12:26;;;;;;;;;;;;;;;;;;5061552;28;19921;-53
2021/11/22 08:14:52;;;;;;;;;;;;;;;;;;5050046;28;20340;-52
2021/11/22 08:17:18;;;;;;;;;;;;;;;;;;5053523;28;19927;-50
2021/11/22 08:19:44;;;;;;;;;;;;;;;;;;5055091;28;19913;-49
2021/11/22 08:22:10;;;;;;;;;;;;;;;;;;5068972;28;20374;-50
2021/11/22 08:24:36;;;;;;;;;;;;;;;;;;5073942;28;20416;-49
2021/11/22 08:27:02;;;;;;;;;;;;;;;;;;5066966;28;19920;-52
2021/11/22 08:29:28;;;;;;;;;;;;;;;;;;5056585;28;19913;-53
2021/11/22 08:31:53;;;;;;;;;;;;;;;;;;5057330;28;19913;-48
2021/11/22 08:34:20;;;;;;;;;;;;;;;;;;5066317;28;19932;-47
2021/11/22 08:36:46;;;;;;;;;;;;;;;;;;5063146;28;19916;-48
2021/11/22 08:39:12;;;;;;;;;;;;;;;;;;5063917;28;19977;-50
2021/11/22 08:41:38;;;;;;;;;;;;;;;;;;5066736;28;19974;-51
2021/11/22 08:44:04;;;;;;;;;;;;;;;;;;5066611;28;19912;-48
2021/11/22 08:46:35;;;;;;;;;;;;;;;;;;5053694;28;19921;-50
2021/11/22 08:49:01;;;;;;;;;;;;;;;;;;5054236;28;19919;-49
2021/11/22 08:51:26;;;;;;;;;;;;;;;;;;5067065;28;19912;-48
2021/11/22 08:53:52;;;;;;;;;;;;;;;;;;5070265;28;19927;-52
2021/11/22 08:56:18;;;;;;;;;;;;;;;;;;5069597;28;20041;-49
2021/11/22 08:58:46;;;;;;;;;;;;;;;;;;5070625;28;19904;-48
2021/11/22 09:01:12;;;;;;;;;;;;;;;;;;5070071;28;19912;-47
2021/11/22 09:03:39;;;;;;;;;;;;;;;;;;5061707;28;19923;-47
2021/11/22 09:06:05;;;;;;;;;;;;;;;;;;5060239;28;19913;-50
2021/11/22 09:08:31;;;;;;;;;;;;;;;;;;5052136;28;19909;-48
2021/11/22 09:10:56;;;;;;;;;;;;;;;;;;5065259;28;19994;-49
2021/11/22 09:13:22;;;;;;;;;;;;;;;;;;5055136;28;19913;-48
2021/11/22 09:15:48;;;;;;;;;;;;;;;;;;5050126;28;19921;-47
2021/11/22 09:18:14;;;;;;;;;;;;;;;;;;5051285;28;19913;-50
2021/11/22 09:20:41;;;;;;;;;;;;;;;;;;5049808;28;20000;-48
2021/11/22 09:23:07;;;;;;;;;;;;;;;;;;5049685;28;20010;-50
2021/11/22 09:25:34;;;;;;;;;;;;;;;;;;5049590;28;20427;-49
2021/11/22 09:28:00;;;;;;;;;;;;;;;;;;5050695;28;20016;-47
2021/11/22 09:30:26;;;;;;;;;;;;;;;;;;5052651;28;20703;-47
2021/11/22 09:32:53;;;;;;;;;;;;;;;;;;5081430;28;19912;-48
2021/11/22 09:35:20;;;;;;;;;;;;;;;;;;5069531;28;19947;-48
2021/11/22 09:37:46;;;;;;;;;;;;;;;;;;5067908;28;19919;-50
2021/11/22 09:40:12;;;;;;;;;;;;;;;;;;5054415;28;20003;-49
2021/11/22 09:42:38;;;;;;;;;;;;;;;;;;5068406;28;20003;-48
2021/11/22 09:45:04;;;;;;;;;;;;;;;;;;5065191;28;19916;-49
2021/11/22 09:47:30;;;;;;;;;;;;;;;;;;5056136;28;19971;-51
2021/11/22 09:49:56;;;;;;;;;;;;;;;;;;5049345;28;19958;-49
2021/11/22 09:52:22;;;;;;;;;;;;;;;;;;5057224;28;19943;-49
2021/11/22 09:54:49;;;;;;;;;;;;;;;;;;5053790;28;19917;-50
2021/11/22 09:57:15;;;;;;;;;;;;;;;;;;5069656;28;19923;-48
2021/11/22 09:59:40;;;;;;;;;;;;;;;;;;5068900;28;19913;-50
2021/11/22 10:02:06;;;;;;;;;;;;;;;;;;5068564;28;19913;-49
2021/11/22 10:04:32;;;;;;;;;;;;;;;;;;5068738;28;19923;-50
2021/11/22 10:06:58;;;;;;;;;;;;;;;;;;5051185;28;20036;-51
2021/11/22 10:09:25;;;;;;;;;;;;;;;;;;5065030;28;19912;-48
2021/11/22 10:11:51;;;;;;;;;;;;;;;;;;5068476;28;19974;-48
2021/11/22 10:14:16;;;;;;;;;;;;;;;;;;5050716;28;20352;-47
2021/11/22 10:16:42;;;;;;;;;;;;;;;;;;5049462;28;19916;-49
2021/11/22 10:19:08;;;;;;;;;;;;;;;;;;5048742;28;19912;-47
2021/11/22 10:21:34;;;;;;;;;;;;;;;;;;5048707;28;19959;-48
2021/11/22 10:24:00;;;;;;;;;;;;;;;;;;5048198;28;19960;-51
2021/11/22 10:26:28;;;;;;;;;;;;;;;;;;5052390;28;19916;-49
2021/11/22 10:28:54;;;;;;;;;;;;;;;;;;5050919;28;19920;-48
2021/11/22 10:31:21;;;;;;;;;;;;;;;;;;5048002;28;19908;-48
2021/11/22 10:33:47;;;;;;;;;;;;;;;;;;5048898;28;20357;-47
2021/11/22 10:36:13;;;;;;;;;;;;;;;;;;5048616;28;19962;-48
2021/11/22 10:38:38;;;;;;;;;;;;;;;;;;5048432;28;19995;-51
2021/11/22 10:41:05;;;;;;;;;;;;;;;;;;5048297;28;19909;-49
2021/11/22 10:43:30;;;;;;;;;;;;;;;;;;5047391;28;19916;-48
2021/11/22 10:45:56;;;;;;;;;;;;;;;;;;5048140;28;19917;-49
2021/11/22 10:48:26;;;;;;;;;;;;;;;;;;5056636;28;19917;-48
2021/11/22 10:50:55;;;;;;;;;;;;;;;;;;5048199;28;19917;-50
2021/11/22 10:53:21;;;;;;;;;;;;;;;;;;5047988;28;19909;-48
2021/11/22 10:55:47;;;;;;;;;;;;;;;;;;5049433;28;20063;-49
2021/11/22 10:58:13;;;;;;;;;;;;;;;;;;5067801;28;19913;-51
2021/11/22 11:00:39;;;;;;;;;;;;;;;;;;5067826;28;19931;-48
2021/11/22 11:03:05;;;;;;;;;;;;;;;;;;5059719;28;19921;-50
2021/11/22 11:05:31;;;;;;;;;;;;;;;;;;5058633;28;19923;-48
2021/11/22 11:07:57;;;;;;;;;;;;;;;;;;5066512;28;20014;-49
2021/11/22 11:10:23;;;;;;;;;;;;;;;;;;5067170;28;19912;-51
2021/11/22 11:12:51;;;;;;;;;;;;;;;;;;5067476;28;20054;-49
2021/11/22 11:15:17;;;;;;;;;;;;;;;;;;5065728;28;19913;-51
2021/11/22 11:17:43;;;;;;;;;;;;;;;;;;5066872;28;19920;-51
2021/11/22 11:20:10;;;;;;;;;;;;;;;;;;5061635;28;19916;-48
2021/11/22 11:22:36;;;;;;;;;;;;;;;;;;5052999;28;19912;-47
2021/11/22 11:25:02;;;;;;;;;;;;;;;;;;5050354;28;19931;-49
2021/11/22 11:27:28;;;;;;;;;;;;;;;;;;5046918;28;19913;-50
2021/11/22 11:29:54;;;;;;;;;;;;;;;;;;5060975;28;19909;-51
2021/11/22 11:32:20;;;;;;;;;;;;;;;;;;5056122;28;19919;-51
2021/11/22 11:34:46;;;;;;;;;;;;;;;;;;5056461;28;19969;-48
2021/11/22 11:37:12;;;;;;;;;;;;;;;;;;5060641;28;19913;-52
2021/11/22 11:39:37;;;;;;;;;;;;;;;;;;5063715;28;19923;-49
2021/11/22 11:42:03;;;;;;;;;;;;;;;;;;5046195;28;19917;-50
2021/11/22 11:44:29;;;;;;;;;;;;;;;;;;5057690;28;19920;-49
2021/11/22 11:46:55;;;;;;;;;;;;;;;;;;5059892;28;19999;-48
2021/11/22 11:49:21;;;;;;;;;;;;;;;;;;5066182;28;19909;-51
2021/11/22 11:51:48;;;;;;;;;;;;;;;;;;5066309;28;19908;-51
2021/11/22 11:54:14;;;;;;;;;;;;;;;;;;5066330;28;19995;-52
2021/11/22 11:56:46;;;;;;;;;;;;;;;;;;5066121;28;19909;-50
2021/11/22 11:59:13;;;;;;;;;;;;;;;;;;5060224;28;20387;-50
2021/11/22 12:01:39;;;;;;;;;;;;;;;;;;5063818;28;19917;-51
2021/11/22 12:04:05;;;;;;;;;;;;;;;;;;5065936;28;19958;-52
2021/11/22 12:06:31;;;;;;;;;;;;;;;;;;5061180;28;19913;-50
2021/11/22 12:08:57;;;;;;;;;;;;;;;;;;5050929;28;20015;-48
2021/11/22 12:11:22;;;;;;;;;;;;;;;;;;5058791;28;19971;-51
2021/11/22 12:13:48;;;;;;;;;;;;;;;;;;5054815;28;19916;-48
2021/11/22 12:16:14;;;;;;;;;;;;;;;;;;5058908;28;20437;-53
2021/11/22 12:18:40;;;;;;;;;;;;;;;;;;5051331;28;19913;-52
2021/11/22 12:21:06;;;;;;;;;;;;;;;;;;5045756;28;19955;-49
2021/11/22 12:23:32;;;;;;;;;;;;;;;;;;5043927;28;19917;-48
2021/11/22 12:25:58;;;;;;;;;;;;;;;;;;5046523;28;19931;-50
2021/11/22 12:28:26;;;;;;;;;;;;;;;;;;5062359;28;19930;-49
2021/11/22 12:30:52;;;;;;;;;;;;;;;;;;5059152;28;20394;-51
2021/11/22 12:33:18;;;;;;;;;;;;;;;;;;5047998;28;19917;-51
2021/11/22 12:35:44;;;;;;;;;;;;;;;;;;5048323;28;19919;-51
2021/11/22 12:38:10;;;;;;;;;;;;;;;;;;5047660;28;19908;-48
2021/11/22 12:40:35;;;;;;;;;;;;;;;;;;5047796;28;20395;-50
2021/11/22 12:43:01;;;;;;;;;;;;;;;;;;5065997;28;19913;-50
2021/11/22 12:45:27;;;;;;;;;;;;;;;;;;5051470;28;20497;-50
2021/11/22 12:47:53;;;;;;;;;;;;;;;;;;5047166;28;19948;-49
2021/11/22 12:50:19;;;;;;;;;;;;;;;;;;5048267;28;19913;-48
2021/11/22 12:52:46;;;;;;;;;;;;;;;;;;5060849;28;19920;-52
2021/11/22 12:55:12;;;;;;;;;;;;;;;;;;5067329;28;19947;-47
2021/11/22 12:57:39;;;;;;;;;;;;;;;;;;5065381;28;19956;-49
2021/11/22 13:00:06;;;;;;;;;;;;;;;;;;5064265;28;19939;-50
2021/11/22 13:02:32;;;;;;;;;;;;;;;;;;5060851;28;19921;-50
2021/11/22 13:04:59;;;;;;;;;;;;;;;;;;5053379;28;20057;-48
2021/11/22 13:07:24;;;;;;;;;;;;;;;;;;5048412;28;19913;-48
2021/11/22 13:09:50;;;;;;;;;;;;;;;;;;5051529;28;19913;-51
2021/11/22 13:12:16;;;;;;;;;;;;;;;;;;5066905;28;19917;-51
2021/11/22 13:14:50;;;;;;;;;;;;;;;;;;5067650;28;19908;-49
2021/11/22 13:17:16;;;;;;;;;;;;;;;;;;5067131;28;19915;-50
2021/11/22 13:19:42;;;;;;;;;;;;;;;;;;5066167;28;19912;-49
2021/11/22 13:22:08;;;;;;;;;;;;;;;;;;5066547;28;20415;-50
2021/11/22 13:24:34;;;;;;;;;;;;;;;;;;5064709;28;19921;-48
2021/11/22 13:27:01;;;;;;;;;;;;;;;;;;5066229;28;19909;-48
2021/11/22 13:29:27;;;;;;;;;;;;;;;;;;5064906;28;20451;-48
2021/11/22 13:31:53;;;;;;;;;;;;;;;;;;5063971;28;20028;-49
2021/11/22 13:34:19;;;;;;;;;;;;;;;;;;5049346;28;19962;-48
2021/11/22 13:36:47;;;;;;;;;;;;;;;;;;5047003;28;19959;-48
2021/11/22 13:39:13;;;;;;;;;;;;;;;;;;5045886;28;19905;-48
2021/11/22 13:41:39;;;;;;;;;;;;;;;;;;5045833;28;20007;-48
2021/11/22 13:44:08;;;;;;;;;;;;;;;;;;5051728;28;19971;-48
2021/11/22 13:46:34;;;;;;;;;;;;;;;;;;5046167;28;19912;-48
2021/11/22 13:49:00;;;;;;;;;;;;;;;;;;5046333;28;20007;-49
2021/11/22 13:51:26;;;;;;;;;;;;;;;;;;5046372;28;20339;-50
2021/11/22 13:53:52;;;;;;;;;;;;;;;;;;5049961;28;20394;-49
2021/11/22 13:56:19;;;;;;;;;;;;;;;;;;5045436;28;19960;-51
2021/11/22 13:58:45;;;;;;;;;;;;;;;;;;5047318;28;20032;-49
2021/11/22 14:01:11;;;;;;;;;;;;;;;;;;5068422;28;19967;-52
2021/11/22 14:03:37;;;;;;;;;;;;;;;;;;5079214;28;19912;-50
2021/11/22 14:06:04;;;;;;;;;;;;;;;;;;5074971;28;19924;-50
2021/11/22 14:08:31;;;;;;;;;;;;;;;;;;5070668;28;19912;-49
2021/11/22 14:10:56;;;;;;;;;;;;;;;;;;5065493;28;20273;-48
2021/11/22 14:13:22;;;;;;;;;;;;;;;;;;5055534;28;19966;-51
2021/11/22 14:15:48;;;;;;;;;;;;;;;;;;5054322;28;19912;-51
2021/11/22 14:18:16;;;;;;;;;;;;;;;;;;5048210;28;20396;-48
2021/11/22 14:20:42;;;;;;;;;;;;;;;;;;5045925;28;19916;-49
2021/11/22 14:23:08;;;;;;;;;;;;;;;;;;5045512;28;19913;-52
2021/11/22 14:25:34;;;;;;;;;;;;;;;;;;5045060;28;19971;-49
2021/11/22 14:28:00;;;;;;;;;;;;;;;;;;5043846;28;19952;-52
2021/11/22 14:30:26;;;;;;;;;;;;;;;;;;5044677;28;19913;-47
2021/11/22 14:32:52;;;;;;;;;;;;;;;;;;5045470;28;19941;-47
2021/11/22 14:35:18;;;;;;;;;;;;;;;;;;5045396;28;19955;-48
2021/11/22 14:37:45;;;;;;;;;;;;;;;;;;5056119;28;19952;-50
2021/11/22 14:40:11;;;;;;;;;;;;;;;;;;5064340;28;19972;-48
2021/11/22 14:42:38;;;;;;;;;;;;;;;;;;5065119;28;19957;-50
2021/11/22 14:45:04;;;;;;;;;;;;;;;;;;5052010;28;20000;-47
2021/11/22 14:47:31;;;;;;;;;;;;;;;;;;5053794;28;19924;-48
2021/11/22 14:49:57;;;;;;;;;;;;;;;;;;5065182;28;19912;-48
2021/11/22 14:52:24;;;;;;;;;;;;;;;;;;5064363;28;19905;-49
2021/11/22 14:54:50;;;;;;;;;;;;;;;;;;5064955;28;19912;-49
2021/11/22 14:57:16;;;;;;;;;;;;;;;;;;5063879;28;19919;-48
2021/11/22 14:59:46;;;;;;;;;;;;;;;;;;5057043;28;20070;-52
2021/11/22 15:02:12;;;;;;;;;;;;;;;;;;5045184;28;20319;-50
2021/11/22 15:04:38;;;;;;;;;;;;;;;;;;5044975;28;19935;-48
2021/11/22 15:07:04;;;;;;;;;;;;;;;;;;5055802;28;20139;-49
2021/11/22 15:09:30;;;;;;;;;;;;;;;;;;5051116;28;20314;-50
2021/11/22 15:11:57;;;;;;;;;;;;;;;;;;5063261;28;20354;-49
2021/11/22 15:14:23;;;;;;;;;;;;;;;;;;5062982;28;19935;-48
2021/11/22 15:16:53;;;;;;;;;;;;;;;;;;5058267;28;20451;-47
2021/11/22 15:19:19;;;;;;;;;;;;;;;;;;5044858;28;19991;-48
2021/11/22 15:21:45;;;;;;;;;;;;;;;;;;5052829;28;20008;-48
2021/11/22 15:24:11;;;;;;;;;;;;;;;;;;5064774;28;19916;-48
2021/11/22 15:26:36;;;;;;;;;;;;;;;;;;5063571;28;19962;-48
2021/11/22 15:29:02;;;;;;;;;;;;;;;;;;5064547;28;20023;-47
2021/11/22 15:31:28;;;;;;;;;;;;;;;;;;5064345;28;19917;-47
2021/11/22 15:33:54;;;;;;;;;;;;;;;;;;5064422;28;20395;-48
2021/11/22 15:36:20;;;;;;;;;;;;;;;;;;5057056;28;19913;-49
2021/11/22 15:38:46;;;;;;;;;;;;;;;;;;5064810;28;19917;-49
2021/11/22 15:41:12;;;;;;;;;;;;;;;;;;5063280;28;20291;-51
2021/11/22 15:43:38;;;;;;;;;;;;;;;;;;5063138;28;19924;-48
2021/11/22 15:46:05;;;;;;;;;;;;;;;;;;5062821;28;19934;-49
2021/11/22 15:48:31;;;;;;;;;;;;;;;;;;5064033;28;20372;-52
2021/11/22 15:50:58;;;;;;;;;;;;;;;;;;5062960;28;19916;-47
2021/11/22 15:53:25;;;;;;;;;;;;;;;;;;5049946;28;19909;-47
2021/11/22 15:55:51;;;;;;;;;;;;;;;;;;5044370;28;19913;-48
2021/11/22 15:58:22;;;;;;;;;;;;;;;;;;5044721;28;19920;-46
2021/11/22 16:00:49;;;;;;;;;;;;;;;;;;5048740;28;19916;-48
2021/11/22 16:03:14;;;;;;;;;;;;;;;;;;5068615;28;19985;-47
2021/11/22 16:05:40;;;;;;;;;;;;;;;;;;5068223;28;19916;-48
2021/11/22 16:08:06;;;;;;;;;;;;;;;;;;5068146;28;19965;-51
2021/11/22 16:10:32;;;;;;;;;;;;;;;;;;5057829;28;20399;-47
2021/11/22 16:12:58;;;;;;;;;;;;;;;;;;5060204;28;19947;-50
2021/11/22 16:15:25;;;;;;;;;;;;;;;;;;5068651;28;19913;-49
2021/11/22 16:17:51;;;;;;;;;;;;;;;;;;5068235;28;19916;-52
2021/11/22 16:20:18;;;;;;;;;;;;;;;;;;5047895;28;20730;-49
2021/11/22 16:22:44;;;;;;;;;;;;;;;;;;5048667;28;20002;-52
2021/11/22 16:25:10;;;;;;;;;;;;;;;;;;5047351;28;20399;-49
2021/11/22 16:27:36;;;;;;;;;;;;;;;;;;5055089;28;19916;-48
2021/11/22 16:30:06;;;;;;;;;;;;;;;;;;5050347;28;19913;-49
2021/11/22 16:32:32;;;;;;;;;;;;;;;;;;5063821;28;19997;-47
2021/11/22 16:34:58;;;;;;;;;;;;;;;;;;5062936;28;19921;-47
2021/11/22 16:37:24;;;;;;;;;;;;;;;;;;5048647;28;19935;-48
2021/11/22 16:39:51;;;;;;;;;;;;;;;;;;5047913;28;19958;-48
2021/11/22 16:42:17;;;;;;;;;;;;;;;;;;5051338;28;19912;-48